Aktualne dane pomiarowe

Uwaga, wersja testowa! Automatyczne pobieranie danych za pomocą narzędzi lub skryptów to umożliwiających jest zabronione.

Dane meteo z obszaru Polski uzyskane na podstawie depesz SYNOP pobieranych co godzinę z NWS. Najedź myszką na symbol przedstawiony w tabeli, aby uzyskać informacje co do jego znaczenia. Prosimy pamiętać, że to testowa wersja strony, która jeszcze nie jest ukończona. Stworzono również jest krótki FAQ dotyczący korzystania z tej podstrony Anomalie temperatury w chwili obecnej odniesione są do okresu referencyjnego 1951-2016. Okres ten będzie później zmieniony na 1981-2010. Kliknij ikonę aby pobrać plik CSV. Kliknij ikonę aby wygenerować mapę synoptyczną dla danego terminu.

Wybierz Datę:    

        

Kielce-Suków (12570)

Dane terminowe dla wybranej stacji. Kliknij datę, aby otrzymać dane z tego terminu dla wszystkich stacji.

TemperaturaZachmurzenieWiatrCiśnienieOpadyPogoda
 Data t td wb tx tn tg rh  Nt Nl Cl Cm Ch ws wd g1 g2 wx mslp ppp ch 24h 12h t ww ww w1 w2  
2019-07-12 23:00:00 15.1 11.5 12.7--- 7930.0wx-wx2wx--21010.4 979.6 -0.1---------
2019-07-12 22:00:00 13.8 11.1 12.0--- 8425.0wx-wx1wx---1010.5 979.6 0.1---------
2019-07-12 21:00:00 14.7 11.3 12.5--- 8028.0wx-wx1wx--11010.5 979.7 0.8---wx-w1--
2019-07-12 20:00:00 16.4 11.1 13.0--- 7150.0wx-wxwx1wx--11010.3 979.7 0.9---------
2019-07-12 19:00:00 17.2 11.7 13.7--- 7035.0wxwxwxwxwx1wx--11010.0 979.5 0.6---wx---
2019-07-12 18:00:00 20.5 7.8 13.3 24.3 15.2- 4450.0wxwxwxwxwx1wx--11009.1 978.9 -0.2- 0.012------
2019-07-12 17:00:00 21.8 7.6 13.8--- 4050.0wxwxwxwxwx1wx--11008.8 978.8 -0.8---------
2019-07-12 16:00:00 23.1 7.2 14.2--- 3645.0wxwxwxwxwx2wx--21008.8 978.9 -0.9---------
2019-07-12 15:00:00 23.5 5.8 13.8--- 3240.0wxwxwxwxwx2wx--21009.0 979.1 -0.7---------
2019-07-12 14:00:00 23.1 5.9 13.7--- 3340.0wxwxwxwx1wx--11009.5 979.6 -0.6---------
2019-07-12 13:00:00 22.5 7.5 14.1--- 3840.0wxwxwxwx1wx--11009.8 979.8 -0.7---------
2019-07-12 12:00:00 22.8 5.7 13.5--- 3340.0wxwxwxwxwx2wx--21009.8 979.8 -1.1- 0.06------
2019-07-12 11:00:00 23.2 6.0 13.8--- 3335.0wxwxwxwx3wx--31010.1 980.2 -1.0---------
2019-07-12 10:00:00 23.1 7.2 14.2--- 3635.0wxwxwxwxwx1wx--11010.5 980.5 -0.8---------
2019-07-12 09:00:00 22.8 7.3 14.1--- 3740.0wxwxwxwx3wx--31010.9 980.9 -0.7---------
2019-07-12 08:00:00 21.0 6.9 13.1--- 4030.0wxwxwxwx3wx--31011.4 981.2 -0.4---------
2019-07-12 07:00:00 19.0 8.9 13.1--- 5223.0wxwxwxwx2wx--21011.7 981.3 -0.4---------
2019-07-12 06:00:00 15.5 9.2 11.7 17.3 5.3 4 6627.0wxwxwxwx1wx--11012.4 981.6 0.0- 0.012----- 6.4
2019-07-12 05:00:00 10.7 8.6 9.3--- 8716.0wxwxwxwx1wx---1012.9 981.6 0.1---------
2019-07-12 04:00:00 6.8 6.2 6.3--- 9612.0wxwxwxwx0---01013.5 981.7 0.0---------
2019-07-12 03:00:00 5.5 5.2 5.2--- 985.0wxwxwxwx1wx--11013.5 981.6 -0.2---wx---
2019-07-12 02:00:00 5.7 5.4 5.4--- 986.0wx-wx1wx--11013.4 981.5 -0.7---wx---
2019-07-12 01:00:00 6.0 5.4 5.5--- 9615.0wx-wx1wx--11013.6 981.7 -0.5---------
2019-07-12 00:00:00 6.6 6.0 6.1--- 9615.0wx-wxwx1wx--11013.6 981.8 -0.2- 0.06------
2019-07-11 23:00:00 7.2 6.5 6.7--- 9523.0wx-wx1wx--11013.9 982.2 0.4---------
2019-07-11 22:00:00 8.1 7.0 7.3--- 9325.0wx-1wx--11013.8 982.2 0.7---------
2019-07-11 21:00:00 9.7 7.5 8.2--- 8630.0wx-0---01013.4 982.0 0.7---------
2019-07-11 20:00:00 12.1 7.8 9.4--- 7528.0wx-wx0---01013.0 981.8 0.6---------
2019-07-11 19:00:00 14.1 7.2 10.0--- 6335.0wx-wxwx1wx--11012.4 981.5 0.3---------
2019-07-11 18:00:00 17.3 6.5 11.3 19.7 12.0- 4950.0wxwxwxwxwx2wx-921011.9 981.3 0.1--12------
2019-07-11 17:00:00 18.4 7.2 12.1--- 4845.0wxwxwxwxwx2wx--21011.7 981.2 0.1---------
2019-07-11 16:00:00 18.7 7.5 12.3--- 4845.0wxwxwxwxwx3wx--31011.6 981.2 0.0---------
2019-07-11 15:00:00 18.4 7.2 12.1--- 4845.0wxwxwxwx5wx-951011.7 981.2 -0.2---------
2019-07-11 14:00:00 18.4 7.8 12.3--- 5040.0wxwxwxwx5wx--51011.6 981.1 -0.2---------
2019-07-11 13:00:00 17.5 8.9 12.4--- 5735.0wxwxwxwx3wx--31011.8 981.2 0.0---------
2019-07-11 12:00:00 16.0 9.0 11.8--- 6340.0wxwxwxwx4wx--41012.1 981.4 -0.1--6wx-w1--
2019-07-11 11:00:00 15.1 8.8 11.3--- 6630.0wxwxwxwx4wx--41012.1 981.3 -0.1---------
2019-07-11 10:00:00 15.3 9.0 11.5--- 6640.0wxwxwxwx4wx--41012.0 981.2 -0.2---wx---
2019-07-11 09:00:00 14.0 10.4 11.7--- 7940.0wxwxwx3wx--31012.5 981.5 0.5---wx-w1--
2019-07-11 08:00:00 13.5 10.5 11.5--- 8235.0wxwxwx3wx--31012.4 981.4 0.4---wx---
2019-07-11 07:00:00 12.3 10.7 11.2--- 9015.0wxwxwx2wx---1012.5 981.4 0.5---wx-w1--
2019-07-11 06:00:00 12.2 9.9 10.7 14.3 10.1 9 8635.0wxwxwx3wx--31012.1 981.0 -0.3 2.4 0.512wx-w1- 2.2
2019-07-11 05:00:00 11.4 10.8 10.9--- 9615.0wxwxwxwx1wx--11012.2 981.0 -0.1---wx---
2019-07-11 04:00:00 10.5 10.0 10.1--- 9710.0wxwxwxwx1wx--11012.2 980.9 -0.5---wx-w1w2--
2019-07-11 03:00:00 10.4 9.9 10.0--- 9714.0wxwxwx1wx--11012.6 981.3 -0.5---wx-w1--
2019-07-11 02:00:00 10.3 9.1 9.4--- 9235.0wx-wx1wx--11012.5 981.1 -0.9---------
2019-07-11 01:00:00 11.0 9.4 9.9--- 9045.0wx-wx1wx--11012.7 981.4 -0.8---wx---
2019-07-11 00:00:00 11.5 9.6 10.2--- 8850.0wxwxwxwx1wx--11013.0 981.8 -0.6--6wx-w1--
7.9 ms

 

Print Friendly, PDF & Email